Time;durP1;ratioP1;P1;durP2;ratioP2;P2;SDS_P1;SDS_P2;PMS_P1;PMS_P2;Temp;Humidity;BMP_temperature;BMP_pressure;BME280_temperature;BME280_humidity;BME280_pressure;Samples;Min_cycle;Max_cycle;Signal;HPM_P1;HPM_P2
2023/02/27 00:05:07;;;;;;;37.60;15.60;;;;;;;-0.48;88.08;99430.45;273431;1268;22547;-89
2023/02/27 00:11:13;;;;;;;33.30;15.60;;;;;;;-0.50;88.11;99431.34;271915;1268;22572;-90
2023/02/27 00:23:54;;;;;;;45.80;16.60;;;;;;;-0.53;88.14;99432.61;272454;1268;22357;-90
2023/02/27 00:29:58;;;;;;;60.90;20.30;;;;;;;-0.58;88.12;99429.73;273520;1268;22550;-89
2023/02/27 00:36:01;;;;;;;35.70;14.30;;;;;;;-0.57;88.26;99438.39;272428;1267;22342;-90
2023/02/27 00:42:05;;;;;;;32.10;12.50;;;;;;;-0.51;88.62;99443.35;272710;1268;22346;-90
2023/02/27 00:48:08;;;;;;;28.40;12.40;;;;;;;-0.47;88.76;99438.78;273580;1268;22447;-89
2023/02/27 00:54:11;;;;;;;33.80;13.40;;;;;;;-0.52;88.35;99439.49;271708;1268;22199;-90
2023/02/27 01:00:13;;;;;;;24.30;12.20;;;;;;;-0.56;88.54;99440.52;273889;1268;22510;-89
2023/02/27 01:06:18;;;;;;;26.60;10.20;;;;;;;-0.58;88.55;99439.04;272548;1264;23180;-89
2023/02/27 01:12:23;;;;;;;21.00;8.90;;;;;;;-0.58;88.55;99445.88;273201;1268;22371;-90
2023/02/27 01:18:24;;;;;;;20.70;8.60;;;;;;;-0.57;88.51;99442.31;272724;1268;22415;-89
2023/02/27 01:24:31;;;;;;;19.80;7.90;;;;;;;-0.58;88.35;99444.32;273810;1265;22395;-90
2023/02/27 01:30:33;;;;;;;19.60;6.60;;;;;;;-0.58;88.05;99454.80;273332;1269;23908;-89
2023/02/27 01:36:40;;;;;;;16.00;6.30;;;;;;;-0.59;87.83;99461.05;272668;1268;22534;-90
2023/02/27 01:42:46;;;;;;;13.90;4.80;;;;;;;-0.59;87.59;99467.34;270070;1267;22731;-89
2023/02/27 01:49:23;;;;;;;13.10;5.40;;;;;;;-0.59;87.58;99473.70;270130;1269;22547;-89
2023/02/27 01:55:27;;;;;;;16.20;4.80;;;;;;;-0.62;87.15;99474.38;270473;1268;22569;-88
2023/02/27 02:01:31;;;;;;;14.60;4.80;;;;;;;-0.63;86.98;99477.09;269512;1267;22555;-89
2023/02/27 02:07:37;;;;;;;13.90;5.60;;;;;;;-0.66;86.97;99479.88;270046;1267;22545;-88
2023/02/27 02:13:40;;;;;;;16.30;5.50;;;;;;;-0.68;86.92;99474.42;269616;1265;22535;-88
2023/02/27 02:20:17;;;;;;;31.40;8.20;;;;;;;-0.76;86.59;99462.00;269885;1269;22552;-88
2023/02/27 02:26:31;;;;;;;20.60;5.90;;;;;;;-0.83;86.56;99460.41;269686;1269;22578;-89
2023/02/27 02:32:44;;;;;;;16.40;4.20;;;;;;;-0.88;86.52;99464.04;271947;1261;23072;-89
2023/02/27 02:39:18;;;;;;;12.30;4.30;;;;;;;-0.97;86.37;99467.23;270957;1268;23308;-90
2023/02/27 02:45:32;;;;;;;14.80;3.90;;;;;;;-1.02;86.12;99471.44;272932;1267;22668;-89
2023/02/27 02:51:43;;;;;;;11.30;3.60;;;;;;;-1.05;85.81;99481.18;273057;1269;22321;-88
2023/02/27 02:57:51;;;;;;;11.50;3.00;;;;;;;-1.07;85.73;99496.86;271422;1269;23831;-89
2023/02/27 03:03:58;;;;;;;7.20;2.60;;;;;;;-1.06;85.42;99502.48;271862;1268;25243;-88
2023/02/27 03:10:14;;;;;;;6.90;2.40;;;;;;;-1.06;85.24;99504.95;271725;1268;22331;-89
2023/02/27 03:16:24;;;;;;;5.20;2.00;;;;;;;-1.07;85.15;99509.37;273558;1269;22311;-88
2023/02/27 03:22:31;;;;;;;8.80;2.80;;;;;;;-1.06;85.01;99514.15;271428;1269;24252;-88
2023/02/27 03:28:37;;;;;;;7.40;1.90;;;;;;;-1.05;84.82;99523.63;269931;1268;22628;-89
2023/02/27 03:34:40;;;;;;;9.90;2.50;;;;;;;-1.05;84.75;99530.63;269621;1269;22566;-88
2023/02/27 03:40:53;;;;;;;7.40;2.30;;;;;;;-1.05;84.50;99538.64;272317;1271;22644;-88
2023/02/27 03:46:59;;;;;;;6.60;1.90;;;;;;;-1.06;84.23;99542.35;270618;1267;22951;-87
2023/02/27 03:53:04;;;;;;;6.90;1.50;;;;;;;-1.07;84.08;99541.34;273759;1268;23133;-88
2023/02/27 03:59:07;;;;;;;11.00;2.90;;;;;;;-1.08;83.76;99550.38;270156;1272;22559;-87
2023/02/27 04:05:09;;;;;;;9.40;2.00;;;;;;;-1.09;83.28;99555.23;271624;1272;22324;-87
2023/02/27 04:11:47;;;;;;;4.00;1.00;;;;;;;-1.07;83.15;99561.98;273552;1268;23072;-88
2023/02/27 04:18:14;;;;;;;5.50;1.50;;;;;;;-1.04;82.78;99570.92;273638;1269;23068;-87
2023/02/27 04:24:33;;;;;;;3.00;1.30;;;;;;;-1.02;82.42;99579.34;273425;1269;22561;-88
2023/02/27 04:31:00;;;;;;;7.10;1.70;;;;;;;-1.00;81.91;99586.59;272400;1267;22633;-88
2023/02/27 04:37:09;;;;;;;3.50;1.20;;;;;;;-1.01;81.79;99588.52;273804;1269;22320;-89
2023/02/27 04:43:16;;;;;;;4.20;1.20;;;;;;;-1.02;81.50;99585.69;273664;1261;22383;-87
2023/02/27 04:49:22;;;;;;;2.70;1.10;;;;;;;-1.03;81.33;99585.37;273617;1270;23209;-87
2023/02/27 04:55:32;;;;;;;6.70;1.00;;;;;;;-1.03;80.70;99591.27;273638;1268;22335;-87
2023/02/27 05:01:40;;;;;;;2.80;1.00;;;;;;;-1.03;80.15;99595.16;273263;1270;22561;-87
2023/02/27 05:07:53;;;;;;;3.00;1.00;;;;;;;-1.04;79.79;99598.38;271420;1268;23098;-86
2023/02/27 05:15:03;;;;;;;3.60;1.00;;;;;;;-1.05;79.71;99602.05;272317;1268;23069;-86
2023/02/27 05:21:39;;;;;;;7.40;1.90;;;;;;;-1.06;79.76;99607.60;269868;1269;22542;-87
2023/02/27 05:27:48;;;;;;;9.60;1.50;;;;;;;-1.03;79.16;99613.42;272224;1268;23326;-87
2023/02/27 05:33:58;;;;;;;2.80;1.00;;;;;;;-0.97;78.45;99623.09;272809;1268;23485;-87
2023/02/27 05:40:08;;;;;;;5.90;1.10;;;;;;;-0.91;77.95;99625.08;272820;1268;22458;-88
2023/02/27 05:46:23;;;;;;;6.70;1.90;;;;;;;-0.86;77.62;99622.61;272787;1265;23545;-87
2023/02/27 05:52:29;;;;;;;2.40;1.20;;;;;;;-0.82;77.38;99628.26;272861;1267;22425;-87
2023/02/27 05:58:42;;;;;;;2.50;1.40;;;;;;;-0.81;77.36;99632.02;272917;1268;22351;-87
2023/02/27 06:04:50;;;;;;;3.30;1.30;;;;;;;-0.79;77.27;99638.20;272892;1268;24171;-88
2023/02/27 06:10:55;;;;;;;5.90;1.70;;;;;;;-0.77;77.27;99644.02;272835;1268;22197;-86
2023/02/27 06:17:04;;;;;;;8.70;2.40;;;;;;;-0.74;77.22;99651.08;272931;1269;22300;-87
2023/02/27 06:23:11;;;;;;;8.50;1.90;;;;;;;-0.72;77.43;99657.02;272890;1267;22425;-87
2023/02/27 06:29:16;;;;;;;4.10;1.30;;;;;;;-0.71;77.26;99665.88;273033;1267;23263;-87
2023/02/27 06:35:21;;;;;;;3.90;1.30;;;;;;;-0.66;76.97;99665.50;273129;1269;23571;-89
2023/02/27 06:41:23;;;;;;;7.80;2.10;;;;;;;-0.62;77.18;99667.40;272845;1268;22306;-87
2023/02/27 06:47:25;;;;;;;6.70;2.40;;;;;;;-0.58;77.31;99670.20;272873;1268;22325;-87
2023/02/27 06:53:32;;;;;;;12.10;3.30;;;;;;;-0.53;77.64;99677.67;272937;1269;22341;-89
2023/02/27 06:59:37;;;;;;;11.40;3.30;;;;;;;-0.49;77.83;99678.39;273115;1267;23059;-86
2023/02/27 07:05:41;;;;;;;10.70;3.60;;;;;;;-0.43;78.47;99685.13;272603;1267;23297;-88
2023/02/27 07:11:48;;;;;;;9.90;3.20;;;;;;;-0.34;79.09;99691.88;273000;1268;22418;-89
2023/02/27 07:17:56;;;;;;;8.30;3.60;;;;;;;-0.27;78.99;99698.52;272909;1267;24225;-88
2023/02/27 07:24:03;;;;;;;12.10;4.40;;;;;;;-0.22;79.27;99697.27;272806;1267;23515;-86
2023/02/27 07:30:14;;;;;;;11.10;4.70;;;;;;;-0.18;79.39;99702.77;272951;1267;23116;-89
2023/02/27 07:36:33;;;;;;;;;;;;;;;;;;;;;
2023/02/27 07:42:36;;;;;;;;;;;;;;;-0.10;80.08;99717.48;270013;1267;23718;-89
2023/02/27 07:48:39;;;;;;;9.40;4.10;;;;;;;-0.03;80.38;99722.73;270703;1268;23049;-89
2023/02/27 07:54:43;;;;;;;8.00;4.10;;;;;;;0.07;80.40;99723.46;270165;1268;23275;-90
2023/02/27 08:00:51;;;;;;;13.70;3.60;;;;;;;0.17;80.38;99729.14;273389;1268;23216;-88
2023/02/27 08:06:57;;;;;;;12.30;4.60;;;;;;;0.28;80.50;99737.34;271362;1270;25300;-87
2023/02/27 08:13:02;;;;;;;9.50;4.30;;;;;;;0.42;80.59;99741.94;270885;1270;22583;-89
2023/02/27 08:19:07;;;;;;;11.30;4.10;;;;;;;0.61;80.41;99738.54;270937;1271;23012;-89
2023/02/27 08:25:21;;;;;;;6.90;3.30;;;;;;;0.75;80.13;99741.96;271413;1269;22993;-88
2023/02/27 08:31:26;;;;;;;14.20;3.90;;;;;;;0.83;79.73;99754.48;272646;1267;22345;-90
2023/02/27 08:37:31;;;;;;;7.80;3.80;;;;;;;0.89;79.46;99761.73;273286;1267;22327;-89
2023/02/27 08:43:33;;;;;;;8.30;3.20;;;;;;;1.03;79.56;99762.42;272711;1267;22458;-89
2023/02/27 08:49:42;;;;;;;10.20;5.00;;;;;;;1.21;79.28;99759.33;271962;1267;22670;-89
2023/02/27 08:55:49;;;;;;;7.50;3.20;;;;;;;1.28;79.10;99763.52;272938;1268;22911;-90
2023/02/27 09:01:54;;;;;;;11.10;3.70;;;;;;;1.25;78.76;99766.98;271747;1267;22594;-89
2023/02/27 09:07:56;;;;;;;10.10;4.10;;;;;;;1.25;78.75;99777.48;270013;1261;23072;-89
2023/02/27 09:13:58;;;;;;;9.20;3.30;;;;;;;1.34;78.82;99778.85;270363;1268;23371;-91
2023/02/27 09:20:03;;;;;;;9.60;3.80;;;;;;;1.41;77.92;99787.27;270365;1269;22655;-88
2023/02/27 09:26:07;;;;;;;7.60;2.60;;;;;;;1.40;77.42;99790.61;271957;1267;22437;-89
2023/02/27 09:32:09;;;;;;;5.70;2.20;;;;;;;1.52;77.13;99794.13;273435;1267;22211;-88
2023/02/27 09:38:12;;;;;;;4.50;2.40;;;;;;;1.66;76.88;99796.59;272793;1268;22698;-88
2023/02/27 09:44:23;;;;;;;4.70;2.20;;;;;;;1.93;76.63;99802.83;270634;1268;23779;-90
2023/02/27 09:50:40;;;;;;;6.50;2.70;;;;;;;2.12;76.43;99804.84;270544;1260;22586;-90
2023/02/27 09:57:16;;;;;;;4.40;2.20;;;;;;;2.29;75.81;99805.65;271030;1264;22828;-89
2023/02/27 10:03:45;;;;;;;6.50;2.70;;;;;;;2.24;74.69;99809.41;270527;1269;22632;-89
2023/02/27 10:10:15;;;;;;;5.70;2.50;;;;;;;2.06;74.57;99814.63;269981;1269;22557;-90
2023/02/27 10:16:21;;;;;;;4.80;1.80;;;;;;;1.81;74.09;99822.98;270932;1270;22364;-91
2023/02/27 10:22:36;;;;;;;4.60;1.90;;;;;;;1.67;73.77;99824.31;271349;1270;22543;-89
2023/02/27 10:28:38;;;;;;;7.40;2.60;;;;;;;1.54;73.87;99823.52;271942;1262;23180;-89
2023/02/27 10:34:42;;;;;;;8.90;4.00;;;;;;;1.38;73.74;99822.26;272064;1264;22301;-89
2023/02/27 10:40:45;;;;;;;10.50;3.20;;;;;;;1.34;73.89;99818.78;271831;1270;22540;-88
2023/02/27 10:46:50;;;;;;;4.80;2.00;;;;;;;1.50;73.90;99817.27;271706;1269;176856;-88
2023/02/27 10:52:55;;;;;;;5.90;2.50;;;;;;;1.72;73.63;99819.64;270572;1269;22332;-88
2023/02/27 10:59:04;;;;;;;8.70;2.80;;;;;;;1.95;73.46;99821.86;270800;1269;22445;-89
2023/02/27 11:05:33;;;;;;;6.40;2.80;;;;;;;1.99;72.67;99825.02;271556;1270;22294;-88
2023/02/27 11:12:11;;;;;;;;;;;;;;;;;;;;;
2023/02/27 11:18:21;;;;;;;7.60;3.70;;;;;;;1.68;72.88;99838.48;270408;1262;25425;-90
2023/02/27 11:24:27;;;;;;;9.30;3.70;;;;;;;1.43;72.73;99837.30;270746;1270;22350;-90
2023/02/27 11:30:35;;;;;;;9.50;5.00;;;;;;;1.20;73.24;99841.55;269798;1270;25306;-89
2023/02/27 11:37:14;;;;;;;12.50;4.30;;;;;;;0.85;73.71;99845.46;270520;1269;22962;-89
2023/02/27 11:43:32;;;;;;;10.80;4.00;;;;;;;0.52;74.28;99843.96;270233;1270;24375;-89
2023/02/27 11:50:00;;;;;;;11.90;4.40;;;;;;;0.43;75.21;99837.19;269480;1270;22556;-89
2023/02/27 11:56:10;;;;;;;10.10;3.60;;;;;;;0.37;75.55;99832.20;270524;1270;23756;-89
2023/02/27 12:02:27;;;;;;;13.30;5.50;;;;;;;0.40;76.02;99828.65;270319;1269;22910;-89
2023/02/27 12:08:49;;;;;;;7.30;3.30;;;;;;;0.46;76.21;99830.02;269707;1270;23067;-90
2023/02/27 12:14:58;;;;;;;8.60;3.20;;;;;;;0.57;76.14;99834.89;270891;1266;23215;-91
2023/02/27 12:21:16;;;;;;;5.20;2.60;;;;;;;0.66;75.39;99835.15;271262;1269;22655;-89
2023/02/27 12:27:25;;;;;;;8.60;3.40;;;;;;;0.68;74.74;99836.21;269720;1269;22543;-89
2023/02/27 12:33:36;;;;;;;9.60;4.20;;;;;;;0.74;75.15;99844.41;270959;1270;22614;-89
2023/02/27 12:39:42;;;;;;;9.80;4.90;;;;;;;0.74;75.88;99851.58;270576;1270;23884;-89
2023/02/27 12:45:50;;;;;;;;;;;;;;;0.78;76.63;99855.36;273072;1270;22532;-89
2023/02/27 12:52:00;;;;;;;12.40;5.70;;;;;;;0.82;76.62;99858.44;270573;1270;24454;-88
2023/02/27 12:58:10;;;;;;;11.90;4.90;;;;;;;0.86;76.99;99856.97;271640;1270;22546;-90
2023/02/27 13:04:15;;;;;;;10.40;4.60;;;;;;;0.87;76.63;99861.92;270376;1270;22642;-88
2023/02/27 13:10:32;;;;;;;15.50;6.10;;;;;;;0.89;76.78;99866.70;269473;1269;22773;-87
2023/02/27 13:16:38;;;;;;;17.50;6.10;;;;;;;0.96;77.19;99871.45;271645;1261;22294;-88
2023/02/27 13:22:47;;;;;;;13.50;6.30;;;;;;;1.07;77.34;99872.91;272827;1269;22672;-87
2023/02/27 13:28:50;;;;;;;10.60;5.10;;;;;;;1.11;77.05;99872.70;270328;1269;22675;-88
2023/02/27 13:34:58;;;;;;;15.40;6.50;;;;;;;1.04;77.11;99871.78;270869;1269;22414;-88
2023/02/27 13:41:21;;;;;;;17.50;6.20;;;;;;;0.98;77.32;99865.97;271301;1269;22299;-89
2023/02/27 13:47:30;;;;;;;14.60;6.40;;;;;;;1.03;77.58;99870.59;269679;1269;22654;-89
2023/02/27 13:53:36;;;;;;;18.80;6.90;;;;;;;1.11;77.73;99872.10;270294;1270;24517;-88
2023/02/27 13:59:39;;;;;;;14.70;6.40;;;;;;;1.15;77.96;99868.39;270759;1269;23336;-89
2023/02/27 14:05:47;;;;;;;15.00;5.80;;;;;;;1.13;77.69;99878.21;270027;1270;24372;-90
2023/02/27 14:11:58;;;;;;;15.00;7.00;;;;;;;1.02;77.67;99878.82;271440;1270;22562;-90
2023/02/27 14:18:02;;;;;;;15.50;6.90;;;;;;;0.93;78.16;99884.55;270396;1270;22746;-89
2023/02/27 14:24:13;;;;;;;14.70;6.20;;;;;;;0.89;78.52;99887.45;272753;1269;22549;-90
2023/02/27 14:30:41;;;;;;;16.00;6.90;;;;;;;0.88;78.92;99891.14;271077;1270;22530;-89
2023/02/27 14:36:51;;;;;;;15.20;7.70;;;;;;;0.92;79.14;99899.70;270350;1269;22522;-89
2023/02/27 14:43:21;;;;;;;15.20;7.60;;;;;;;0.93;79.12;99895.38;270976;1269;23102;-87
2023/02/27 14:49:31;;;;;;;14.90;7.50;;;;;;;0.97;79.26;99898.56;270948;1269;22617;-90
2023/02/27 14:55:37;;;;;;;16.90;7.30;;;;;;;0.97;78.92;99902.84;272356;1269;22539;-89
2023/02/27 15:01:39;;;;;;;21.80;7.20;;;;;;;0.93;78.96;99901.80;273318;1270;22381;-89
2023/02/27 15:07:45;;;;;;;15.90;6.90;;;;;;;0.88;78.78;99909.24;273088;1269;22212;-89
2023/02/27 15:13:52;;;;;;;14.70;7.50;;;;;;;0.90;78.90;99915.96;272907;1269;22614;-90
2023/02/27 15:19:56;;;;;;;14.10;6.60;;;;;;;0.94;79.28;99917.91;270389;1269;22660;-89
2023/02/27 15:25:58;;;;;;;23.90;8.00;;;;;;;0.94;79.56;99925.61;270653;1270;23315;-88
2023/02/27 15:32:03;;;;;;;16.10;6.90;;;;;;;0.91;79.57;99934.55;270113;1270;22562;-89
2023/02/27 15:38:06;;;;;;;14.60;6.60;;;;;;;0.82;79.32;99933.32;271557;1270;22344;-88
2023/02/27 15:44:26;;;;;;;16.60;6.90;;;;;;;0.73;79.81;99944.90;270191;1269;22386;-91
2023/02/27 15:51:05;;;;;;;14.60;7.00;;;;;;;0.68;79.56;99949.81;270735;1262;22564;-88
2023/02/27 15:57:21;;;;;;;18.30;8.10;;;;;;;0.66;79.82;99957.34;270802;1265;22608;-89
2023/02/27 16:03:24;;;;;;;12.30;5.60;;;;;;;0.62;79.40;99965.45;270376;1270;22407;-89
2023/02/27 16:09:37;;;;;;;11.30;5.80;;;;;;;0.54;79.03;99973.64;271005;1270;24451;-89
2023/02/27 16:15:44;;;;;;;24.60;8.50;;;;;;;0.48;79.07;99976.19;270989;1269;25481;-88
2023/02/27 16:22:13;;;;;;;22.60;8.60;;;;;;;0.41;79.05;99980.98;269874;1270;22570;-89
2023/02/27 16:28:18;;;;;;;19.70;8.90;;;;;;;0.34;79.43;99990.26;271910;1269;23561;-89
2023/02/27 16:34:29;;;;;;;16.50;6.90;;;;;;;0.26;79.38;99994.50;272759;1270;23523;-90
2023/02/27 16:40:32;;;;;;;15.10;7.30;;;;;;;0.20;79.32;100006.08;273150;1270;22200;-90
2023/02/27 16:46:53;;;;;;;;;;;;;;;;;;;;;
2023/02/27 16:53:04;;;;;;;13.40;6.90;;;;;;;0.12;79.20;100021.91;271936;1270;22386;-89
2023/02/27 16:59:28;;;;;;;15.50;7.30;;;;;;;0.07;79.09;100033.54;272918;1269;22485;-90
2023/02/27 17:05:32;;;;;;;18.10;7.70;;;;;;;0.04;79.26;100040.93;264512;1269;10001539;-88
2023/02/27 17:11:34;;;;;;;22.00;9.60;;;;;;;0.02;79.40;100047.27;272256;1270;22333;-89
2023/02/27 17:17:36;;;;;;;21.80;9.10;;;;;;;-0.02;79.74;100053.02;272601;1270;22567;-90
2023/02/27 17:23:38;;;;;;;19.10;9.30;;;;;;;-0.05;79.89;100061.71;272359;1269;22534;-89
2023/02/27 17:29:43;;;;;;;18.80;9.20;;;;;;;-0.07;80.10;100065.66;271611;1269;22394;-89
2023/02/27 17:35:45;;;;;;;18.00;9.00;;;;;;;-0.08;80.50;100071.12;273283;1269;22429;-89
2023/02/27 17:41:47;;;;;;;25.70;10.20;;;;;;;-0.08;80.50;100080.48;273141;1270;22661;-89
2023/02/27 17:47:56;;;;;;;23.50;9.80;;;;;;;-0.09;80.42;100076.19;272662;1269;22347;-89
2023/02/27 17:54:05;;;;;;;27.20;10.50;;;;;;;-0.10;80.45;100076.99;272192;1270;22559;-89
2023/02/27 18:00:09;;;;;;;28.10;11.60;;;;;;;-0.09;80.54;100078.38;272778;1269;22396;-89
2023/02/27 18:06:11;;;;;;;22.40;10.30;;;;;;;-0.06;80.70;100085.41;272298;1269;22869;-89
2023/02/27 18:12:13;;;;;;;23.40;12.70;;;;;;;-0.05;81.03;100088.16;272739;1271;25324;-90
2023/02/27 18:18:21;;;;;;;23.60;11.60;;;;;;;-0.05;81.09;100093.21;270896;1269;22350;-89
2023/02/27 18:24:23;;;;;;;30.50;14.30;;;;;;;-0.10;81.04;100095.45;270967;1269;23172;-88
2023/02/27 18:30:35;;;;;;;29.10;12.50;;;;;;;-0.14;81.52;100100.00;272500;1268;22334;-89
2023/02/27 18:36:45;;;;;;;30.40;10.10;;;;;;;-0.18;81.15;100107.55;270991;1266;22554;-87
2023/02/27 18:43:23;;;;;;;20.90;8.70;;;;;;;-0.22;80.64;100119.59;271280;1269;22826;-88
2023/02/27 18:49:42;;;;;;;15.90;8.30;;;;;;;-0.23;80.63;100122.39;272449;1271;22304;-89
2023/02/27 18:55:44;;;;;;;20.20;8.60;;;;;;;-0.24;80.54;100125.58;272784;1271;22333;-89
2023/02/27 19:01:53;;;;;;;18.00;8.50;;;;;;;-0.23;80.74;100130.57;271314;1270;22331;-91
2023/02/27 19:08:00;;;;;;;19.60;9.60;;;;;;;-0.25;80.59;100136.83;270401;1271;22247;-89
2023/02/27 19:14:10;;;;;;;18.00;8.50;;;;;;;-0.27;80.39;100143.06;272394;1269;22612;-90
2023/02/27 19:20:22;;;;;;;18.60;9.00;;;;;;;-0.28;80.58;100147.21;271672;1269;25276;-89
2023/02/27 19:26:24;;;;;;;19.70;9.40;;;;;;;-0.28;80.43;100152.33;270595;1269;23205;-90
2023/02/27 19:32:29;;;;;;;26.70;12.30;;;;;;;-0.27;80.47;100160.34;270712;1270;22287;-90
2023/02/27 19:38:32;;;;;;;22.50;10.00;;;;;;;-0.28;80.43;100159.38;270854;1270;22523;-88
2023/02/27 19:44:38;;;;;;;22.30;11.00;;;;;;;-0.27;80.23;100165.99;272298;1269;22583;-89
2023/02/27 19:50:48;;;;;;;25.80;10.60;;;;;;;-0.27;80.28;100170.41;271235;1269;22659;-90
2023/02/27 19:56:53;;;;;;;29.40;13.10;;;;;;;-0.28;80.41;100168.42;270810;1269;22644;-90
2023/02/27 20:02:59;;;;;;;30.60;16.00;;;;;;;-0.28;80.48;100171.16;272770;1270;22313;-88
2023/02/27 20:09:23;;;;;;;22.00;10.00;;;;;;;-0.28;80.56;100175.15;272558;1269;22555;-89
2023/02/27 20:15:34;;;;;;;19.90;10.40;;;;;;;-0.29;80.52;100181.72;272148;1265;22548;-88
2023/02/27 20:21:54;;;;;;;37.10;16.30;;;;;;;-0.29;80.49;100189.96;270109;1270;22200;-90
2023/02/27 20:28:04;;;;;;;41.40;17.90;;;;;;;-0.33;80.54;100191.74;271720;1269;22659;-88
2023/02/27 20:34:24;;;;;;;27.10;13.40;;;;;;;-0.35;80.68;100196.05;271395;1270;23218;-90
2023/02/27 20:40:43;;;;;;;29.90;13.60;;;;;;;-0.37;80.79;100202.14;270851;1269;22548;-89
2023/02/27 20:46:49;;;;;;;27.90;14.00;;;;;;;-0.38;80.90;100203.02;271785;1253;22398;-90
2023/02/27 20:53:01;;;;;;;40.10;16.50;;;;;;;-0.38;80.93;100204.73;272705;1269;22625;-89
2023/02/27 20:59:13;;;;;;;36.80;15.00;;;;;;;-0.41;80.97;100202.85;271793;1269;22507;-89
2023/02/27 21:05:15;;;;;;;41.70;16.80;;;;;;;-0.43;81.20;100201.24;270696;1270;22329;-90
2023/02/27 21:11:20;;;;;;;40.60;15.50;;;;;;;-0.46;81.50;100195.93;271746;1269;22563;-90
2023/02/27 21:17:24;;;;;;;56.70;23.70;;;;;;;-0.45;81.66;100197.05;272644;1270;23105;-89
2023/02/27 21:23:26;;;;;;;59.00;20.40;;;;;;;-0.46;81.73;100197.16;271648;1270;23342;-90
2023/02/27 21:29:30;;;;;;;40.90;16.80;;;;;;;-0.47;81.61;100203.73;272855;1271;22656;-87
2023/02/27 21:35:32;;;;;;;39.00;15.20;;;;;;;-0.49;81.48;100206.27;271237;1269;25426;-88
2023/02/27 21:41:34;;;;;;;39.00;15.80;;;;;;;-0.48;81.63;100214.60;272434;1268;23044;-87
2023/02/27 21:47:36;;;;;;;31.60;14.10;;;;;;;-0.49;81.43;100221.23;273070;1270;23938;-87
2023/02/27 21:53:38;;;;;;;33.40;14.90;;;;;;;-0.51;81.40;100222.26;271589;1270;23760;-88
2023/02/27 21:59:41;;;;;;;30.60;13.10;;;;;;;-0.52;81.43;100220.16;271910;1274;23329;-88
2023/02/27 22:05:43;;;;;;;42.90;16.20;;;;;;;-0.52;81.61;100223.06;270466;1269;22396;-89
2023/02/27 22:11:46;;;;;;;38.00;16.00;;;;;;;-0.54;81.67;100225.00;270804;1269;22537;-89
2023/02/27 22:17:54;;;;;;;26.30;12.70;;;;;;;-0.55;81.49;100228.61;272204;1270;25567;-89
2023/02/27 22:23:57;;;;;;;29.10;13.10;;;;;;;-0.56;81.70;100227.59;272481;1272;22237;-89
2023/02/27 22:29:59;;;;;;;33.60;15.10;;;;;;;-0.57;81.83;100229.69;273293;1270;22204;-89
2023/02/27 22:36:07;;;;;;;34.10;14.00;;;;;;;-0.58;81.85;100227.87;273198;1269;22419;-90
2023/02/27 22:42:09;;;;;;;29.80;13.90;;;;;;;-0.59;81.81;100227.48;271755;1271;22349;-90
2023/02/27 22:48:11;;;;;;;31.20;14.10;;;;;;;-0.60;81.86;100231.73;270466;1270;129069;-89
2023/02/27 22:54:15;;;;;;;30.90;13.40;;;;;;;-0.61;82.09;100233.30;272586;1270;22880;-89
2023/02/27 23:00:18;;;;;;;32.60;14.20;;;;;;;-0.62;82.22;100234.27;270877;1269;22542;-88
2023/02/27 23:06:22;;;;;;;27.00;12.70;;;;;;;-0.63;82.02;100237.50;270369;1269;22341;-88
2023/02/27 23:12:27;;;;;;;28.50;12.60;;;;;;;-0.65;82.21;100236.54;269734;1271;25082;-90
2023/02/27 23:18:29;;;;;;;31.70;13.70;;;;;;;-0.67;82.12;100236.23;270781;1266;22549;-89
2023/02/27 23:24:31;;;;;;;30.40;13.90;;;;;;;-0.71;82.06;100231.86;270166;1262;22669;-90
2023/02/27 23:30:33;;;;;;;32.90;13.60;;;;;;;-0.74;82.33;100239.20;270237;1271;22594;-89
2023/02/27 23:36:39;;;;;;;31.20;13.00;;;;;;;-0.74;82.28;100245.80;270420;1270;22339;-90
2023/02/27 23:49:03;;;;;;;32.80;13.20;;;;;;;-0.78;82.18;100248.02;270598;1270;22516;-89
2023/02/27 23:55:09;;;;;;;31.90;13.50;;;;;;;-0.82;82.46;100248.91;270815;1270;22589;-90
